Create Custom Reports and Graphics: Custom Report

Stanford Met Tower

Current Conditions

12/8/21 1:00 AM (-08:00)
Updated Every 15 Minutes
Rain 24Hr 0.03 In
Storm Total 0.07 In
Temp 44.7 °F   6.8
RH 97 %   1
Dew Pt 44.0 °F   6.5
Wind Dir W | 273 °
Wind Spd 4.0 mph   1.9
Wind Gust 5.0 mph   0.5
NowCast AQI Value 38 AQI   121
NowCast AQI Status Good
Daily Min Temp 44.3 °F   7.0
Daily Max Temp 45.6 °F   6.5
Daily Max Wind 5.0 mph   0.4
Yesterday’s Min Temp 45.0 °F
Yesterday's Max Temp 60.3 °F
Yesterday's Max Wind 9.8 mph
Seasonal Rainfall 4.42 In

Last 48 Hours

Stanford Met Tower

Hourly Data | America/Los_Angeles
as of 12/8/21 1:28 AM PST
Date & Time Temp (°F) WindChill (°F) RH (%) Dew Pt (°F) Wind Dir (°) Wind Spd (mph) Wind Gust (mph) Solar Rad (W/m2) Pressure (mb) NowCast AQI Value (AQI) NowCast AQI Status Latest Rain (In) Daily Rain (In) Daily Min Temp (°F) Daily Max Temp (°F)
12/8/21 - 0100 44.8 - 97 44.0 WSW | 254 2.8 5.0 0 1,020.3 38 Good 0.00 0.00 44.3 45.6
12/8/21 - 0000 45.7 43.6 97 44.8 SSW | 203 4.3 6.8 0 1,020.3 42 Good 0.00 0.07 45.0 60.3
12/7/21 - 2300 46.0 - 96 45.0 SW | 220 3.5 6.6 0 1,020.2 48 Good 0.00 0.07 45.4 60.3
12/7/21 - 2200 47.6 - 96 46.6 SW | 226 4.0 7.9 0 1,019.9 51 Moderate 0.00 0.07 46.9 60.3
12/7/21 - 2100 47.9 - 95 46.6 SW | 222 3.6 6.2 0 1,019.8 50 Good 0.00 0.07 46.9 60.3
12/7/21 - 2000 49.0 - 94 47.5 SSW | 209 4.7 8.9 0 1,019.6 55 Moderate 0.00 0.07 48.2 60.3
12/7/21 - 1900 50.6 - 93 48.6 WSW | 249 3.3 6.3 0 1,019.4 63 Moderate 0.00 0.07 49.6 60.3
12/7/21 - 1800 53.7 - 87 50.0 W | 274 3.1 6.5 0 1,018.5 68 Moderate 0.00 0.07 50.6 60.3
12/7/21 - 1700 56.8 - 78 50.1 SW | 224 3.1 6.3 30 1,017.4 68 Moderate 0.00 0.07 50.6 60.3
12/7/21 - 1600 59.2 - 72 50.3 ESE | 123 2.7 6.3 154 1,017.4 69 Moderate 0.00 0.07 50.6 60.3
12/7/21 - 1500 59.6 - 71 50.1 E | 97 3.2 7.1 296 1,017.2 71 Moderate 0.00 0.07 50.6 60.3
12/7/21 - 1400 58.6 - 74 50.2 NNE | 32 2.2 6.5 356 1,017.6 77 Moderate 0.00 0.07 50.6 59.8
12/7/21 - 1300 57.4 - 76 50.0 NNE | 20 4.1 9.6 332 1,017.8 84 Moderate 0.00 0.07 50.6 58.7
12/7/21 - 1200 56.0 - 81 50.2 ENE | 59 2.9 9.8 306 1,018.1 91 Moderate 0.00 0.07 50.6 57.4
12/7/21 - 1100 54.4 - 85 50.0 NE | 34 2.8 6.1 181 1,018.7 92 Moderate 0.00 0.07 50.6 55.8
12/7/21 - 1000 53.1 - 94 51.3 SSE | 167 2.7 6.3 259 1,018.6 89 Moderate 0.00 0.07 50.6 54.7
12/7/21 - 0900 51.6 - 98 51.0 SSE | 164 3.2 6.3 96 1,018.5 89 Moderate 0.00 0.07 50.6 52.4
12/7/21 - 0800 51.3 - 98 50.6 SSE | 153 0.7 2.9 5 1,018.4 70 Moderate 0.01 0.07 50.6 52.2
12/7/21 - 0700 51.0 - 98 50.4 WSW | 251 0.5 2.6 0 1,018.1 75 Moderate 0.00 0.06 50.6 52.2
12/7/21 - 0600 51.0 - 98 50.4 W | 270 2.1 4.0 0 1,017.7 81 Moderate 0.01 0.06 50.6 52.2
12/7/21 - 0500 51.1 - 97 50.4 NNW | 344 0.8 2.7 0 1,017.3 87 Moderate 0.00 0.05 50.6 52.2
12/7/21 - 0400 51.1 - 97 50.3 WSW | 239 2.1 5.2 0 1,017.5 98 Moderate 0.01 0.05 50.6 52.2
12/7/21 - 0300 50.8 - 97 50.0 E | 81 2.6 9.0 1 1,017.7 116 Unhealthy for Sensitive 0.00 0.04 50.6 52.2
12/7/21 - 0200 51.4 - 97 50.5 S | 175 2.4 6.4 1 1,018.1 149 Unhealthy for Sensitive 0.00 0.04 51.0 52.2
12/7/21 - 0100 51.5 - 96 50.5 WSW | 237 2.2 4.7 1 1,018.8 159 Unhealthy 0.04 0.04 51.2 52.1
12/7/21 - 0000 51.7 - 96 50.6 SSW | 213 1.2 2.9 0 1,019.5 164 Unhealthy 0.00 0.00 43.0 53.5
12/6/21 - 2300 52.0 - 95 50.8 SSW | 202 1.9 4.8 0 1,019.9 166 Unhealthy 0.00 0.00 43.0 53.5
12/6/21 - 2200 52.2 - 95 50.7 WSW | 258 2.4 4.0 0 1,020.0 168 Unhealthy 0.00 0.00 43.0 53.5
12/6/21 - 2100 51.9 - 94 50.2 WSW | 248 1.4 3.6 0 1,019.9 169 Unhealthy 0.00 0.00 43.0 53.5
12/6/21 - 2000 52.0 - 93 50.0 SW | 229 2.2 5.3 0 1,020.0 167 Unhealthy 0.00 0.00 43.0 53.5
12/6/21 - 1900 52.1 - 92 49.8 SE | 137 1.3 4.7 0 1,019.9 165 Unhealthy 0.00 0.00 43.0 53.5
12/6/21 - 1800 52.4 - 91 50.0 S | 186 1.2 3.3 0 1,020.5 163 Unhealthy 0.00 0.00 43.0 53.5
12/6/21 - 1700 52.7 - 90 49.9 ESE | 114 1.0 4.6 4 1,020.8 162 Unhealthy 0.00 0.00 43.0 53.5
12/6/21 - 1600 52.9 - 91 50.2 NNE | 26 2.7 4.8 21 1,021.0 161 Unhealthy 0.00 0.00 43.0 53.5
12/6/21 - 1500 52.5 - 95 51.0 N | 357 0.7 4.1 49 1,021.1 161 Unhealthy 0.00 0.00 43.0 53.3
12/6/21 - 1400 51.8 - 97 51.0 NNE | 32 1.3 5.1 66 1,021.4 161 Unhealthy 0.00 0.00 43.0 52.7
12/6/21 - 1300 51.4 - 98 50.9 NNE | 14 2.1 5.4 66 1,022.4 158 Unhealthy 0.00 0.00 43.0 52.0
12/6/21 - 1200 51.1 - 98 50.5 NW | 313 1.4 4.1 56 1,023.6 152 Unhealthy 0.00 0.00 43.0 51.8
12/6/21 - 1100 50.3 - 98 49.7 W | 271 1.7 5.6 64 1,024.4 118 Unhealthy for Sensitive 0.00 0.00 43.0 51.1
12/6/21 - 1000 49.6 - 98 49.1 W | 261 1.7 5.6 45 1,024.5 91 Moderate 0.00 0.00 43.0 50.6
12/6/21 - 0900 49.1 - 98 48.6 W | 281 2.6 5.9 28 1,023.9 75 Moderate 0.00 0.00 43.0 49.7
12/6/21 - 0800 48.9 - 98 48.4 SSW | 206 2.3 5.3 7 1,023.1 74 Moderate 0.00 0.00 43.0 49.4
12/6/21 - 0700 48.7 - 98 48.2 SSW | 210 2.3 5.6 0 1,023.2 75 Moderate 0.00 0.00 43.0 49.3
12/6/21 - 0600 48.4 - 98 47.9 SW | 214 4.0 8.2 0 1,023.7 70 Moderate 0.00 0.00 43.0 49.0
12/6/21 - 0500 48.3 - 98 47.8 WSW | 242 3.3 5.9 0 1,023.9 67 Moderate 0.00 0.00 43.0 49.0
12/6/21 - 0400 47.2 - 97 46.5 SSW | 212 2.7 5.1 0 1,024.0 70 Moderate 0.00 0.00 43.0 48.0
12/6/21 - 0300 46.5 - 97 45.8 W | 264 1.6 3.3 0 1,024.5 73 Moderate 0.00 0.00 43.0 47.4
12/6/21 - 0200 45.5 - 97 44.6 SSW | 201 3.6 7.6 0 1,025.0 64 Moderate 0.00 0.00 43.0 46.5
12/6/21 - 0100 43.5 - 96 42.4 SSW | 206 3.4 6.6 0 1,025.4 49 Good 0.00 0.00 43.0 44.4
Max 59.6 - 98 51.3 - 4.7 9.8 356 1,025.4 169 - 0.04 0.07 51.2 60.3
Avg 51.1 - 93 49.1 - 2.4 5.7 49 1,020.4 100 - 0.00 - - -
Min 43.5 - 71 42.4 - 0.5 2.6 0 1,017.2 38 - 0.00 0.00 43.0 44.4
Total - - - - - - - - - - - 0.07 - - -

Last 30 Days

Stanford Met Tower

Daily Data | America/Los_Angeles
as of 12/8/21 1:28 AM PST
Date Daily Max Temp (°F) Time of Max Temp Daily Min Temp (°F) Time of Min Temp Daily Rain (In) Monthly Rain (In) Seasonal Rainfall (In) Daily Max Wind (mph) Time of Max Wind Max Wind Dir (°) Dew Pt (°F) Max RH (%) Min RH (%) Daily ETo (in) Daily Solar Rad (Cal/cm2) PM2.5 Daily Max (ug/m3) Time of Max PM2.5 Max Pressure (mb) (mb) Time of Max Press Min pressure (mb) (mb) Time of Min Press Max Temp Inversion (°F) Time of Max Temp Inversion Min Temp Inversion (°F) Time of Min Temp Inversion HDDs (°F) CDDs (°F) GDDs (DL) Chilling <=45F (hrs) Chilling <=45F Seas (hrs) Daily Max Rain Intensity (In/Hr) Time of Max Rain Intensity Storm Total (In) Bat Volt Min Day (V)
12/7/21 60.3 1432 45.0 2359 0.07 0.07 4.42 9.8 1141 NNE | 28 49.4 98 69 0.038 174 64.8 0000 1,021.0 2258 1,017.0 1440 3.3 1656 -4.5 1211 12.6 0.0 2.9 0.0 131 0.08 0042 0.07 12.2
12/6/21 53.5 1513 43.0 0030 0.00 0.00 4.35 8.2 0513 S | 191 48.9 98 90 0.008 35 96.8 2043 1,026.0 0001 1,019.0 2359 1.1 0004 -2.4 1442 14.9 0.0 1.1 1.2 131 - - - 12.2
12/5/21 61.6 1340 41.2 2315 0.00 0.00 4.35 8.9 0648 WSW | 256 47.0 98 65 0.039 186 42.0 0628 1,029.0 0910 1,024.0 1609 4.3 1735 -5.9 1214 15.1 0.0 1.9 3.9 130 - - - 12.2
12/4/21 61.0 1311 43.6 2111 0.00 0.00 4.35 11.1 1450 N | 8 47.8 97 64 0.039 166 72.7 0558 1,029.0 2110 1,023.0 0005 3.9 1741 -5.3 1316 12.2 0.0 3.7 1.6 126 - - - 12.2
12/3/21 57.0 1312 50.3 0453 0.00 0.00 4.35 10.2 0742 S | 184 50.1 98 78 0.021 81 95.3 0228 1,024.0 2341 1,021.0 1457 1.2 0024 -3.3 1305 11.6 0.0 3.4 0.0 124 - - - 12.2
12/2/21 69.5 1256 40.9 0609 0.00 0.00 4.35 8.8 0636 SSW | 199 47.0 98 51 0.049 206 58.8 2343 1,023.0 0951 1,019.0 1626 5.7 2103 -5.1 1218 13.0 0.4 5.1 7.5 124 - - - 12.2
12/1/21 72.9 1351 41.8 0452 0.00 0.00 4.35 12.8 1017 ENE | 78 45.6 91 42 0.060 244 36.0 1028 1,023.0 0845 1,019.0 1458 6.6 0802 -4.7 1246 11.6 1.0 6.6 5.7 116 - - - 12.1
11/30/21 74.1 1325 41.0 0625 0.00 0.18 4.35 11.6 2157 SSW | 201 46.6 98 38 0.062 249 22.8 0943 1,025.0 0758 1,020.0 1358 7.5 1649 -4.9 1304 11.8 1.1 6.6 7.1 111 - - - 12.2
11/29/21 70.5 1402 42.4 0703 0.00 0.18 4.35 8.2 0331 SSW | 195 46.6 95 43 0.058 241 54.8 0928 1,026.0 0814 1,021.0 1507 5.3 2323 -5.0 1228 12.2 0.7 5.8 5.4 104 - - - 12.2
11/28/21 70.8 1318 43.1 0718 0.00 0.18 4.35 8.2 1323 N | 6 46.0 95 43 0.059 244 26.0 1628 1,027.0 0905 1,023.0 1416 4.9 1653 -4.8 1225 11.7 0.7 6.0 4.9 98 - - - 12.2
11/27/21 71.2 1513 40.2 0618 0.00 0.18 4.35 8.6 0105 SSW | 200 42.8 91 32 0.059 247 22.3 0943 1,025.0 2345 1,021.0 1500 6.9 1712 -5.2 1245 12.7 0.8 6.0 7.4 93 - - - 12.2
11/26/21 66.1 1501 40.2 0725 0.00 0.18 4.35 9.5 1043 NE | 45 42.6 95 40 0.058 253 38.8 1013 1,030.0 0011 1,022.0 1604 5.1 1717 -4.7 1224 13.8 0.0 4.4 7.8 86 - - - 12.2
11/25/21 67.4 1343 36.3 0702 0.00 0.18 4.35 9.4 0721 S | 190 37.5 88 29 0.058 254 18.3 2258 1,032.0 0925 1,028.0 1515 5.3 0211 -5.2 1327 15.7 0.1 4.3 9.2 78 - - - 12.2
11/24/21 66.5 1342 35.7 0652 0.00 0.18 4.35 11.6 1149 ENE | 78 34.4 95 23 0.071 266 10.5 0013 1,029.0 2348 1,022.0 0102 8.8 0648 -5.0 1308 15.6 0.1 4.3 10.8 69 - - - 12.2
11/23/21 65.3 1121 39.5 0638 0.00 0.18 4.35 13.4 1427 NNW | 347 43.2 95 43 0.060 252 19.0 0613 1,023.0 2359 1,019.0 1423 4.8 1738 -4.9 1306 15.0 0.0 3.9 10.3 58 - - - 12.2
11/22/21 69.9 1351 38.4 0612 0.00 0.18 4.35 10.1 1227 ENE | 69 43.8 96 42 0.065 269 16.0 1158 1,025.0 0007 1,019.0 1542 5.3 1710 -5.2 1300 13.6 0.5 5.5 8.6 48 - - - 12.2
11/21/21 69.0 1407 40.4 0454 0.00 0.18 4.35 11.0 1051 NE | 50 43.3 93 42 0.065 270 7.2 2343 1,027.0 0837 1,023.0 1449 5.4 1646 -5.6 1245 13.1 0.4 5.3 8.0 39 - - - 12.2
11/20/21 67.3 1327 42.5 2359 0.00 0.18 4.35 11.4 1234 NE | 39 48.0 98 42 0.067 271 20.0 0858 1,026.0 0904 1,023.0 1531 4.3 1703 -5.6 1013 9.8 0.1 6.0 0.9 31 - - - 12.2
11/19/21 65.0 1121 50.8 0451 0.01 0.18 4.35 11.4 1536 NNE | 18 53.1 96 63 0.033 118 45.0 0643 1,024.0 0934 603.0 0945 1.2 0523 -3.6 1117 8.1 0.0 6.9 0.0 30 0.01 2104 - 12.2
11/18/21 62.4 1313 42.2 0504 0.00 0.17 4.34 9.0 1101 NNE | 22 48.2 97 64 0.041 168 44.2 1528 1,023.0 2334 1,021.0 1314 3.7 0406 -3.8 1256 12.7 0.0 4.4 6.7 30 - - - 12.3
11/17/21 66.9 1348 42.3 0652 0.00 0.17 4.34 9.3 0335 SSW | 201 42.5 98 31 0.068 276 9.3 0028 1,022.0 2359 1,019.0 1508 5.0 1702 -5.5 1254 12.1 0.1 5.1 3.6 24 - - - 12.3
11/16/21 64.0 1511 46.9 2350 0.00 0.17 4.34 8.6 1208 NNW | 342 51.8 98 70 0.036 153 32.3 0013 1,024.0 0144 1,019.0 1611 3.3 0633 -4.1 1343 10.6 0.0 4.7 0.0 20 - - - 12.3
11/15/21 63.2 1509 44.9 0636 0.00 0.17 4.34 8.5 1316 NNE | 28 51.3 98 76 0.035 152 59.8 0928 1,024.0 0956 1,021.0 1452 2.9 1756 -3.8 1140 11.3 0.0 4.6 0.1 20 - - - 12.2
11/14/21 72.6 1312 45.7 0546 0.00 0.17 4.34 7.8 0320 SSW | 198 51.1 98 51 0.071 284 46.2 0858 1,025.0 0831 1,021.0 1515 3.8 1744 -5.8 1248 9.7 1.0 7.0 0.0 20 - - - 12.2
11/13/21 76.7 1351 46.4 0505 0.00 0.17 4.34 9.2 0958 NNE | 27 51.7 98 41 0.074 290 22.3 0958 1,026.0 0734 1,021.0 1453 5.0 1810 -5.3 1159 8.8 1.9 8.5 0.0 20 - - - 12.2
11/12/21 73.9 1424 45.0 0632 0.00 0.17 4.34 11.2 1208 NNE | 32 52.5 98 56 0.073 281 39.2 0828 1,028.0 0822 1,023.0 1437 4.9 1706 -5.5 1250 8.9 1.7 8.4 0.0 20 - - - 12.2
11/11/21 72.9 1351 47.0 0610 0.00 0.17 4.34 8.8 1218 NNW | 332 49.7 97 42 0.076 292 9.3 1428 1,029.0 0009 1,024.0 1613 4.4 1702 -6.0 1317 8.7 1.4 8.2 0.0 20 - - - 12.1
11/10/21 68.3 1307 50.1 0000 0.00 0.17 4.34 9.8 1327 N | 355 51.6 96 34 0.065 253 10.5 0028 1,030.0 0949 1,027.0 1438 3.4 1711 -5.5 1127 6.4 0.4 9.0 0.0 20 - - - 12.2
11/9/21 67.0 1253 51.2 0008 0.08 0.17 4.34 24.8 0030 SSE | 165 53.6 96 70 0.044 147 11.0 1658 1,028.0 2359 1,017.0 0003 3.5 1756 -3.4 1249 7.5 0.1 7.6 0.0 20 0.12 0001 0.14 12.2
11/8/21 65.9 1309 39.6 0638 0.06 0.09 4.26 26.7 2209 SSE | 149 40.6 95 33 0.073 226 70.2 1613 1,024.0 0002 1,017.0 2311 3.8 0626 -5.1 1123 11.3 0.0 6.1 7.2 20 0.22 2336 0.06 12.2
Max 76.7 - 51.2 - 0.08 0.18 - 26.7 - - 53.6 98 90 0.076 292 96.8 - 1,032.0 - 1,028.0 - 8.8 - -2.4 - 15.7 1.9 9.0 10.8 - 0.22 - 0.14 12.3
Avg - - - - - 0.13 - - - - 46.9 - - - - - - 1,025.9 - 1,007.2 - - - - - - - 5.4 3.9 - - - 0.09 -
Min 53.5 - 35.7 - 0.00 0.00 - 7.8 - - 34.4 88 23 0.008 35 7.2 - 1,021.0 - 603.0 - 1.1 - -6.0 - 6.4 0.0 1.1 0.0 - 0.01 - 0.06 12.1
Total - - - - - - - - - - - - - - - - - - - - - - - - - - - 163.1 118.1 - - - - -
Calm: 1.0%
Calm: 0.0%

Climate Summary

Stanford Met Tower

Current Year | Showing 1/1/21 - 12/7/21
as of 12/8/21 1:28 AM PST
Temperature (°F) Max Wind Gust (mph) Precip (in) Days
Month Days Avg High Avg Low Max Min Avg Max Total Daily Min Temp < 32 Daily Min Temp < 40 Daily Max Temp > 90 Daily Max Temp > 100 Daily Rain > 0.01 Daily Rain > 0.1
Jan 2021 31 61.5 39.3 77.7 31 16.4 37.4 3.78 2 16 0 0 7 7
Feb 2021 28 64.3 38.5 77.4 32.8 17.7 29.7 0.57 0 19 0 0 5 2
Mar 2021 31 64.3 36.9 82.6 32.3 19.4 35.2 1.19 0 26 0 0 6 6
Apr 2021 30 69.1 40 84.5 35.2 18 27.2 0 0 14 0 0 0 0
May 2021 31 74.5 45.7 87.4 38.8 18.9 32.1 0 0 1 0 0 0 0
Jun 2021 30 78.2 52.3 101.4 42.2 18 27.9 0.02 0 0 3 1 0 0
Jul 2021 31 78.9 55.5 86.7 48.7 14.5 21.1 0.02 0 0 0 0 0 0
Aug 2021 31 80.1 55.5 96.7 49.2 14.9 24.2 0 0 0 2 0 0 0
Sep 2021 30 80.2 52.1 92.1 45.7 14.3 22.1 0 0 0 3 0 0 0
Oct 2021 31 73 47.7 89.4 39.2 17.8 42.8 1.76 0 1 0 0 6 3
Nov 2021 30 68.3 44.3 76.7 35.7 12.2 26.7 0.18 0 5 0 0 3 0
Dec 2021 7 62.3 43.7 72.9 40.9 10 12.8 0.07 0 0 0 0 1 0
Total 341 - - - - - - 7.59 2 82 8 1 28 18
Average 28.4 71.9 46.2 71.9 46.2 16.4 - 0.63 0.2 6.8 0.7 0.1 2.3 1.5
Maximum 31 80.2 55.5 101.4 - - 42.8 3.78 2 26 3 1 7 7
Minimum 7 61.5 36.9 - 31 - - 0 0 0 0 0 0 0

Climate Summary

Stanford Met Tower

Last Year | Showing 1/1/20 - 12/31/20
as of 12/8/21 1:28 AM PST
Temperature (°F) Max Wind Gust (mph) Precip (in) Days
Month Days Avg High Avg Low Max Min Avg Max Total Daily Min Temp < 32 Daily Min Temp < 40 Daily Max Temp > 90 Daily Max Temp > 100 Daily Rain > 0.01 Daily Rain > 0.1
Jan 2020 31 60.2 38.4 84.2 32.1 14.2 32.1 0.94 0 21 0 0 5 1
Feb 2020 29 66.4 37.1 77.7 29.2 15.2 36.7 0 3 24 0 0 0 0
Mar 2020 31 63 41.7 78.5 33.1 17.3 30.4 1.63 0 10 0 0 10 5
Apr 2020 30 69.6 44.4 85.5 34.1 17.9 28.2 0.94 0 6 0 0 3 3
May 2020 31 77.2 48.2 96.7 37.8 19.1 32.5 0.21 0 1 4 0 2 1
Jun 2020 30 79.7 52.9 95.6 44.5 19.6 27 0 0 0 5 0 0 0
Jul 2020 31 80.3 54.1 93.1 47.9 15.3 21.9 0 0 0 1 0 0 0
Aug 2020 31 83.6 57.8 101.6 51 16.1 29.5 0.13 0 0 7 1 1 1
Sep 2020 30 82.5 54.8 107.5 50.1 13.2 21.7 0.02 0 0 5 2 1 0
Oct 2020 31 81.4 49 95.1 39.7 12.4 27 0 0 2 7 0 0 0
Nov 2020 30 65.9 38.1 80.1 29.5 14.6 34.4 0.44 5 17 0 0 4 2
Dec 2020 31 61.7 36.1 74.5 29.5 12.7 29.5 1.25 3 27 0 0 6 3
Total 366 - - - - - - 5.56 11 108 29 3 32 16
Average 30.5 72.6 46.1 72.6 46.1 15.6 - 0.46 0.9 9 2.4 0.2 2.7 1.3
Maximum 31 83.6 57.8 107.5 - - 36.7 1.63 5 27 7 2 10 5
Minimum 29 60.2 36.1 - 29.2 - - 0 0 0 0 0 0 0

Climate Summary 2018

Stanford Met Tower

1/1/2018 - 12/31/2018 | Showing 1/1/18 - 12/31/18
as of 12/8/21 1:28 AM PST
Temperature (°F) Max Wind Gust (mph) Precip (in) Days
Month Days Avg High Avg Low Max Min Avg Max Total Daily Min Temp < 32 Daily Min Temp < 40 Daily Max Temp > 90 Daily Max Temp > 100 Daily Rain > 0.01 Daily Rain > 0.1
Jan 2018 31 64.1 41.9 74 33.4 - - 3.42 0 13 0 0 9 5
Feb 2018 28 69.4 36.9 83.9 26.6 - - 0.33 6 17 0 0 2 1
Mar 2018 31 68.7 41.1 87 32.2 - - 3.53 0 14 0 0 13 10
Apr 2018 30 73.2 43.4 85.7 36 - - 1.38 0 6 0 0 7 3
May 2018 31 75.3 47.2 95.5 40.8 - - 0 0 0 1 0 0 0
Jun 2018 30 84.1 49.6 101.9 42.5 - - 0 0 0 8 1 0 0
Jul 2018 31 85.4 55.9 96.9 51.5 - - 0.02 0 0 6 0 0 0
Aug 2018 31 84.4 53.5 94.5 47.9 - - 0 0 0 7 0 0 0
Sep 2018 28 83.2 48.8 95.7 42.6 13.3 25.1 0 0 0 3 0 0 0
Oct 2018 31 79.9 46.7 88.1 39.6 14.2 22.3 0.05 0 1 0 0 2 0
Nov 2018 30 70.8 40.8 86.5 31.5 14.6 50.5 1.95 1 15 0 0 6 4
Dec 2018 31 61.7 39.4 67.1 31.1 14.8 33.3 1.44 1 20 0 0 7 5
Total 363 - - - - - - 12.12 8 86 25 1 46 28
Average 30.2 75 45.5 75 45.5 14.4 - 1.01 0.7 7.2 2.1 0.1 3.8 2.3
Maximum 31 85.4 55.9 101.9 - - 50.5 3.53 6 20 8 1 13 10
Minimum 28 61.7 36.9 - 26.6 - - 0 0 0 0 0 0 0

Climate Summary 2017

Stanford Met Tower

1/1/2017 - 12/31/2017 | Showing 1/1/17 - 12/31/17
as of 12/8/21 1:28 AM PST
Temperature (°F) Max Wind Gust (mph) Precip (in) Days
Month Days Avg High Avg Low Max Min Avg Max Total Daily Min Temp < 32 Daily Min Temp < 40 Daily Max Temp > 90 Daily Max Temp > 100 Daily Rain > 0.01 Daily Rain > 0.1
Jan 2017 31 59.2 38.6 67.9 27.2 - - 10.05 5 17 0 0 17 13
Feb 2017 28 63.5 44.2 72.8 31.9 - - 8.52 1 10 0 0 14 12
Mar 2017 31 71.7 43.2 84.4 33 - - 2.7 0 7 0 0 8 7
Apr 2017 30 73.7 44.7 86.2 36.3 - - 2.08 0 5 0 0 9 6
May 2017 31 79.6 48.3 96 41 - - 0.01 0 0 6 0 0 0
Jun 2017 30 84.1 52.1 106.2 42.7 - - 0.04 0 0 7 1 1 0
Jul 2017 31 88.3 53.9 103.6 47.6 - - 0.01 0 0 8 3 0 0
Aug 2017 31 85 56.6 98.6 50.5 - - 0 0 0 7 0 0 0
Sep 2017 30 87.4 54.8 110.8 43.7 - - 0.06 0 0 10 2 1 0
Oct 2017 31 81.7 45.1 95.5 38.6 - - 0.13 0 1 4 0 2 0
Nov 2017 30 68.5 44.8 75.4 35.9 - - 2.67 0 6 0 0 8 4
Dec 2017 31 64.4 33.9 72.8 27.9 - - 0.1 5 31 0 0 2 0
Total 365 - - - - - - 26.37 11 77 42 6 62 42
Average 30.4 75.7 46.7 75.7 46.7 - - 2.2 0.9 6.4 3.5 0.5 5.2 3.5
Maximum 31 88.3 56.6 110.8 - - - 10.05 5 31 10 3 17 13
Minimum 28 59.2 33.9 - 27.2 - - 0 0 0 0 0 0 0